Search for airport 
image banner adimage banner adimage banner ad
image banner ad

KBAM - Battle Mountain

Located in Battle Mountain, United States

ICAO - BAM, IATA - BAM

Data provided by Airmate  

General information

Coordinates: N40°35'57" W116°52'28"
Elevation is 4536 feet MSL.
Magnetic variation is 13° East
View others Airports in Nevada

Operational data

Special qualification required
Current time UTC:
Current local time:
Weather
METAR: KBAM 130135Z AUTO 27003KT 10SM CLR 32/M02 A2996 RMK AO1
View NOTAMs / SUP AIP / TFR affecting this airport [VIEW]
Communications frequencies: [VIEW]

Runways:

RWY identifierQFULength (ft)Width (ft)SurfaceLDA (ft)
0449°7300150ASPH
22229°7300150ASPH
13139°7299100ASPH
31319°7299100ASPH

Airport contact information

Address: Battle Mountain United States

Satellite view of KBAM